createdAt,value
2017-10-21T00:00:04.017Z,1003.66
2017-10-21T00:01:04.066Z,1003.66
2017-10-21T00:02:04.136Z,1003.65
2017-10-21T00:03:04.137Z,1003.65
2017-10-21T00:04:04.069Z,1003.64
2017-10-21T00:05:04.146Z,1003.60
2017-10-21T00:06:04.095Z,1003.60
2017-10-21T00:07:04.142Z,1003.57
2017-10-21T00:08:04.087Z,1003.61
2017-10-21T00:09:04.041Z,1003.61
2017-10-21T00:10:04.094Z,1003.61
2017-10-21T00:11:04.033Z,1003.63
2017-10-21T00:12:04.124Z,1003.64
2017-10-21T00:13:04.068Z,1003.62
2017-10-21T00:14:04.173Z,1003.68
2017-10-21T00:15:04.033Z,1003.67
2017-10-21T00:16:04.006Z,1003.67
2017-10-21T00:17:04.110Z,1003.69
2017-10-21T00:18:04.004Z,1003.67
2017-10-21T00:19:04.031Z,1003.69
2017-10-21T00:20:04.073Z,1003.66
2017-10-21T00:21:04.013Z,1003.67
2017-10-21T00:22:04.084Z,1003.69
2017-10-21T00:23:04.134Z,1003.72
2017-10-21T00:24:04.097Z,1003.69
2017-10-21T00:25:04.042Z,1003.68
2017-10-21T00:26:04.138Z,1003.68
2017-10-21T00:27:04.015Z,1003.63
2017-10-21T00:28:04.014Z,1003.62
2017-10-21T00:29:04.082Z,1003.63
2017-10-21T00:30:04.057Z,1003.59
2017-10-21T00:31:04.104Z,1003.61
2017-10-21T00:32:04.057Z,1003.59
2017-10-21T00:33:04.124Z,1003.57
2017-10-21T00:34:04.085Z,1003.62
2017-10-21T00:35:04.089Z,1003.63
2017-10-21T00:36:04.093Z,1003.63
2017-10-21T00:37:04.158Z,1003.61
2017-10-21T00:38:04.091Z,1003.58
2017-10-21T00:39:04.159Z,1003.57
2017-10-21T00:40:04.089Z,1003.56
2017-10-21T00:41:04.091Z,1003.56
2017-10-21T00:42:04.159Z,1003.56
2017-10-21T00:43:04.091Z,1003.59
2017-10-21T00:44:04.161Z,1003.53
2017-10-21T00:45:04.087Z,1003.53
2017-10-21T00:46:04.185Z,1003.55
2017-10-21T00:47:04.143Z,1003.52
2017-10-21T00:48:04.095Z,1003.52
2017-10-21T00:49:04.167Z,1003.48
2017-10-21T00:50:04.094Z,1003.57
2017-10-21T00:51:04.165Z,1003.57
2017-10-21T00:52:04.096Z,1003.56
2017-10-21T00:53:04.167Z,1003.55
2017-10-21T00:54:04.096Z,1003.58
2017-10-21T00:55:04.168Z,1003.55
2017-10-21T00:56:04.103Z,1003.58
2017-10-21T00:57:04.171Z,1003.59
2017-10-21T00:58:04.099Z,1003.61
2017-10-21T00:59:04.172Z,1003.63
2017-10-21T01:00:04.108Z,1003.65
2017-10-21T01:01:04.180Z,1003.66
2017-10-21T01:02:04.105Z,1003.68
2017-10-21T01:03:04.173Z,1003.68
2017-10-21T01:04:04.126Z,1003.70
2017-10-21T01:05:04.175Z,1003.69
2017-10-21T01:06:04.108Z,1003.68
2017-10-21T01:07:04.177Z,1003.69
2017-10-21T01:08:04.108Z,1003.69
2017-10-21T01:09:04.177Z,1003.66
2017-10-21T01:10:04.178Z,1003.66
2017-10-21T01:11:04.111Z,1003.65
2017-10-21T01:12:04.176Z,1003.67
2017-10-21T01:13:04.113Z,1003.66
2017-10-21T01:14:04.060Z,1003.66
2017-10-21T01:15:04.111Z,1003.66
2017-10-21T01:16:04.181Z,1003.67
2017-10-21T01:17:04.118Z,1003.69
2017-10-21T01:18:04.118Z,1003.66
2017-10-21T01:19:04.212Z,1003.69
2017-10-21T01:20:04.184Z,1003.70
2017-10-21T01:21:04.138Z,1003.69
2017-10-21T01:22:04.117Z,1003.69
2017-10-21T01:23:04.187Z,1003.69
2017-10-21T01:24:04.120Z,1003.70
2017-10-21T01:25:04.121Z,1003.69
2017-10-21T01:26:04.209Z,1003.75
2017-10-21T01:27:04.124Z,1003.67
2017-10-21T01:28:04.158Z,1003.72
2017-10-21T01:29:04.213Z,1003.72
2017-10-21T01:30:04.191Z,1003.71
2017-10-21T01:31:04.122Z,1003.70
2017-10-21T01:32:04.190Z,1003.72
2017-10-21T01:33:04.137Z,1003.70
2017-10-21T01:34:04.193Z,1003.68
2017-10-21T01:35:04.123Z,1003.71
2017-10-21T01:36:04.081Z,1003.70
2017-10-21T01:37:04.120Z,1003.65
2017-10-21T01:38:04.197Z,1003.64
2017-10-21T01:39:04.127Z,1003.66
2017-10-21T01:40:04.195Z,1003.66
2017-10-21T01:41:04.195Z,1003.67
2017-10-21T01:42:04.197Z,1003.63
2017-10-21T01:43:04.126Z,1003.65
2017-10-21T01:44:04.199Z,1003.73
2017-10-21T01:45:04.129Z,1003.70
2017-10-21T01:46:04.132Z,1003.71
2017-10-21T01:47:04.272Z,1003.69
2017-10-21T01:48:04.200Z,1003.71
2017-10-21T01:49:04.134Z,1003.70
2017-10-21T01:50:04.202Z,1003.72
2017-10-21T01:51:04.207Z,1003.66
2017-10-21T01:52:04.140Z,1003.71
2017-10-21T01:53:04.203Z,1003.76
2017-10-21T01:54:04.142Z,1003.76
2017-10-21T01:55:04.206Z,1003.80
2017-10-21T01:56:04.208Z,1003.81
2017-10-21T01:57:04.205Z,1003.81
2017-10-21T01:58:04.139Z,1003.81
2017-10-21T01:59:04.207Z,1003.80
2017-10-21T02:00:04.140Z,1003.79
2017-10-21T02:01:04.215Z,1003.77
2017-10-21T02:02:04.146Z,1003.75
2017-10-21T02:03:04.212Z,1003.72
2017-10-21T02:04:04.140Z,1003.73
2017-10-21T02:05:04.221Z,1003.73
2017-10-21T02:06:04.217Z,1003.69
2017-10-21T02:07:04.146Z,1003.68
2017-10-21T02:08:04.212Z,1003.67
2017-10-21T02:09:04.143Z,1003.66
2017-10-21T02:10:04.214Z,1003.65
2017-10-21T02:11:04.149Z,1003.64
2017-10-21T02:12:04.149Z,1003.65
2017-10-21T02:13:04.144Z,1003.63
2017-10-21T02:14:04.214Z,1003.61
2017-10-21T02:15:04.148Z,1003.59
2017-10-21T02:16:04.147Z,1003.58
2017-10-21T02:17:04.125Z,1003.59
2017-10-21T02:18:04.121Z,1003.55
2017-10-21T02:19:04.184Z,1003.56
2017-10-21T02:20:04.126Z,1003.54
2017-10-21T02:21:04.231Z,1003.53
2017-10-21T02:22:04.091Z,1003.56
2017-10-21T02:23:04.086Z,1003.56
2017-10-21T02:24:04.215Z,1003.56
2017-10-21T02:25:04.194Z,1003.57
2017-10-21T02:26:04.225Z,1003.57
2017-10-21T02:27:04.160Z,1003.57
2017-10-21T02:28:04.227Z,1003.52
2017-10-21T02:29:04.159Z,1003.53
2017-10-21T02:30:04.228Z,1003.45
2017-10-21T02:31:04.159Z,1003.50
2017-10-21T02:32:04.231Z,1003.47
2017-10-21T02:33:04.189Z,1003.49
2017-10-21T02:34:04.267Z,1003.50
2017-10-21T02:35:04.230Z,1003.52
2017-10-21T02:36:04.175Z,1003.51
2017-10-21T02:37:04.293Z,1003.52
2017-10-21T02:38:04.232Z,1003.52
2017-10-21T02:39:04.164Z,1003.47
2017-10-21T02:40:04.233Z,1003.47
2017-10-21T02:41:04.169Z,1003.45
2017-10-21T02:42:04.238Z,1003.44
2017-10-21T02:43:04.235Z,1003.46
2017-10-21T02:44:04.164Z,1003.43
2017-10-21T02:45:04.235Z,1003.49
2017-10-21T02:46:04.234Z,1003.48
2017-10-21T02:47:04.194Z,1003.53
2017-10-21T02:48:04.238Z,1003.52
2017-10-21T02:49:04.167Z,1003.48
2017-10-21T02:50:04.240Z,1003.45
2017-10-21T02:51:04.168Z,1003.48
2017-10-21T02:52:04.238Z,1003.47
2017-10-21T02:53:04.172Z,1003.44
2017-10-21T02:54:04.242Z,1003.49
2017-10-21T02:55:04.172Z,1003.45
2017-10-21T02:56:04.172Z,1003.48
2017-10-21T02:57:04.245Z,1003.53
2017-10-21T02:58:04.176Z,1003.48
2017-10-21T02:59:04.254Z,1003.51
2017-10-21T03:00:04.171Z,1003.52
2017-10-21T03:01:04.173Z,1003.52
2017-10-21T03:02:04.245Z,1003.55
2017-10-21T03:03:04.177Z,1003.58
2017-10-21T03:04:04.249Z,1003.63
2017-10-21T03:05:04.221Z,1003.61
2017-10-21T03:06:04.248Z,1003.59
2017-10-21T03:07:04.177Z,1003.58
2017-10-21T03:08:04.250Z,1003.54
2017-10-21T03:09:04.248Z,1003.54
2017-10-21T03:10:04.180Z,1003.50
2017-10-21T03:11:04.252Z,1003.49
2017-10-21T03:12:04.180Z,1003.51
2017-10-21T03:13:04.253Z,1003.48
2017-10-21T03:14:04.254Z,1003.49
2017-10-21T03:15:04.253Z,1003.51
2017-10-21T03:16:04.282Z,1003.48
2017-10-21T03:17:04.254Z,1003.50
2017-10-21T03:18:04.186Z,1003.48
2017-10-21T03:19:04.256Z,1003.49
2017-10-21T03:20:04.189Z,1003.45
2017-10-21T03:21:04.262Z,1003.43
2017-10-21T03:22:04.258Z,1003.41
2017-10-21T03:23:04.192Z,1003.39
2017-10-21T03:24:04.257Z,1003.39
2017-10-21T03:25:04.260Z,1003.40
2017-10-21T03:26:04.191Z,1003.42
2017-10-21T03:27:04.209Z,1003.44
2017-10-21T03:28:04.261Z,1003.36
2017-10-21T03:29:04.265Z,1003.38
2017-10-21T03:30:04.264Z,1003.39
2017-10-21T03:31:04.195Z,1003.37
2017-10-21T03:32:04.197Z,1003.35
2017-10-21T03:33:04.193Z,1003.39
2017-10-21T03:34:04.265Z,1003.38
2017-10-21T03:35:04.266Z,1003.42
2017-10-21T03:36:04.197Z,1003.40
2017-10-21T03:37:04.267Z,1003.40
2017-10-21T03:38:04.222Z,1003.38
2017-10-21T03:39:04.268Z,1003.36
2017-10-21T03:40:04.199Z,1003.34
2017-10-21T03:41:04.269Z,1003.33
2017-10-21T03:42:04.272Z,1003.33
2017-10-21T03:43:04.270Z,1003.36
2017-10-21T03:44:04.202Z,1003.35
2017-10-21T03:45:04.271Z,1003.38
2017-10-21T03:46:04.202Z,1003.36
2017-10-21T03:47:04.203Z,1003.31
2017-10-21T03:48:04.273Z,1003.38
2017-10-21T03:49:04.277Z,1003.37
2017-10-21T03:50:04.202Z,1003.40
2017-10-21T03:51:04.206Z,1003.39
2017-10-21T03:52:04.181Z,1003.36
2017-10-21T03:53:04.208Z,1003.39
2017-10-21T03:54:04.207Z,1003.42
2017-10-21T03:55:04.311Z,1003.41
2017-10-21T03:56:04.212Z,1003.39
2017-10-21T03:57:04.211Z,1003.35
2017-10-21T03:58:04.176Z,1003.35
2017-10-21T03:59:04.224Z,1003.28
2017-10-21T04:00:04.235Z,1003.26
2017-10-21T04:01:04.239Z,1003.23
2017-10-21T04:02:04.212Z,1003.30
2017-10-21T04:03:04.139Z,1003.26
2017-10-21T04:04:04.214Z,1003.28
2017-10-21T04:05:04.155Z,1003.25
2017-10-21T04:06:04.155Z,1003.19
2017-10-21T04:07:04.256Z,1003.20
2017-10-21T04:08:04.215Z,1003.18
2017-10-21T04:09:04.252Z,1003.21
2017-10-21T04:10:04.216Z,1003.19
2017-10-21T04:11:04.275Z,1003.15
2017-10-21T04:12:04.280Z,1003.17
2017-10-21T04:13:04.305Z,1003.19
2017-10-21T04:14:04.189Z,1003.17
2017-10-21T04:15:04.258Z,1003.21
2017-10-21T04:16:04.243Z,1003.23
2017-10-21T04:17:04.291Z,1003.26
2017-10-21T04:18:04.223Z,1003.23
2017-10-21T04:19:04.291Z,1003.22
2017-10-21T04:20:04.221Z,1003.23
2017-10-21T04:21:04.292Z,1003.25
2017-10-21T04:22:04.226Z,1003.31
2017-10-21T04:23:04.293Z,1003.31
2017-10-21T04:24:04.293Z,1003.35
2017-10-21T04:25:04.294Z,1003.35
2017-10-21T04:26:04.230Z,1003.36
2017-10-21T04:27:04.231Z,1003.35
2017-10-21T04:28:04.233Z,1003.33
2017-10-21T04:29:04.298Z,1003.27
2017-10-21T04:30:04.301Z,1003.26
2017-10-21T04:31:04.182Z,1003.23
2017-10-21T04:32:04.231Z,1003.25
2017-10-21T04:33:04.301Z,1003.22
2017-10-21T04:34:04.303Z,1003.21
2017-10-21T04:35:04.236Z,1003.15
2017-10-21T04:36:04.405Z,1003.19
2017-10-21T04:37:04.307Z,1003.18
2017-10-21T04:38:04.236Z,1003.18
2017-10-21T04:39:04.304Z,1003.15
2017-10-21T04:40:04.234Z,1003.15
2017-10-21T04:41:04.229Z,1003.13
2017-10-21T04:42:04.305Z,1003.14
2017-10-21T04:43:04.305Z,1003.11
2017-10-21T04:44:04.238Z,1003.08
2017-10-21T04:45:04.308Z,1003.04
2017-10-21T04:46:04.239Z,1003.01
2017-10-21T04:47:04.236Z,1003.06
2017-10-21T04:48:04.282Z,1003.07
2017-10-21T04:49:04.303Z,1003.04
2017-10-21T04:50:04.305Z,1003.09
2017-10-21T04:51:04.219Z,1003.07
2017-10-21T04:52:04.295Z,1003.10
2017-10-21T04:53:04.325Z,1003.01
2017-10-21T04:54:04.216Z,1003.00
2017-10-21T04:55:04.303Z,1002.96
2017-10-21T04:56:04.249Z,1002.96
2017-10-21T04:57:04.314Z,1002.95
2017-10-21T04:58:04.250Z,1002.94
2017-10-21T04:59:04.243Z,1002.89
2017-10-21T05:00:04.247Z,1002.87
2017-10-21T05:01:04.317Z,1002.90
2017-10-21T05:02:04.271Z,1002.89
2017-10-21T05:03:04.320Z,1002.91
2017-10-21T05:04:04.251Z,1002.83
2017-10-21T05:05:04.198Z,1002.89
2017-10-21T05:06:04.248Z,1002.94
2017-10-21T05:07:04.320Z,1002.93
2017-10-21T05:08:04.250Z,1002.95
2017-10-21T05:09:04.252Z,1002.94
2017-10-21T05:10:04.258Z,1002.99
2017-10-21T05:11:04.322Z,1002.97
2017-10-21T05:12:04.408Z,1002.94
2017-10-21T05:13:04.324Z,1002.97
2017-10-21T05:14:04.328Z,1002.93
2017-10-21T05:15:04.326Z,1002.89
2017-10-21T05:16:04.259Z,1002.96
2017-10-21T05:17:04.179Z,1002.90
2017-10-21T05:18:04.182Z,1002.92
2017-10-21T05:19:04.230Z,1002.95
2017-10-21T05:20:04.184Z,1002.98
2017-10-21T05:21:04.229Z,1003.01
2017-10-21T05:22:04.227Z,1003.01
2017-10-21T05:23:04.183Z,1003.01
2017-10-21T05:24:04.227Z,1003.02
2017-10-21T05:25:04.281Z,1003.04
2017-10-21T05:26:04.194Z,1003.07
2017-10-21T05:27:04.334Z,1003.11
2017-10-21T05:28:04.284Z,1003.06
2017-10-21T05:29:04.334Z,1003.08
2017-10-21T05:30:04.334Z,1003.09
2017-10-21T05:31:04.347Z,1003.03
2017-10-21T05:32:04.270Z,1003.01
2017-10-21T05:33:04.284Z,1002.98
2017-10-21T05:34:04.267Z,1003.00
2017-10-21T05:35:04.223Z,1003.05
2017-10-21T05:36:04.273Z,1003.07
2017-10-21T05:37:04.239Z,1003.10
2017-10-21T05:38:04.280Z,1003.12
2017-10-21T05:39:04.282Z,1003.16
2017-10-21T05:40:04.263Z,1003.17
2017-10-21T05:41:04.290Z,1003.17
2017-10-21T05:42:04.288Z,1003.15
2017-10-21T05:43:04.192Z,1003.17
2017-10-21T05:44:04.242Z,1003.15
2017-10-21T05:45:04.286Z,1003.14
2017-10-21T05:46:04.195Z,1003.11
2017-10-21T05:47:04.276Z,1003.11
2017-10-21T05:48:04.275Z,1003.14
2017-10-21T05:49:04.345Z,1003.14
2017-10-21T05:50:04.279Z,1003.09
2017-10-21T05:51:04.381Z,1003.08
2017-10-21T05:52:04.348Z,1003.07
2017-10-21T05:53:04.276Z,1002.98
2017-10-21T05:54:04.283Z,1002.97
2017-10-21T05:55:04.350Z,1002.97
2017-10-21T05:56:04.286Z,1002.97
2017-10-21T05:57:04.227Z,1002.96
2017-10-21T05:58:04.249Z,1002.90
2017-10-21T05:59:04.286Z,1002.88
2017-10-21T06:00:04.241Z,1002.85
2017-10-21T06:01:04.232Z,1002.87
2017-10-21T06:02:04.305Z,1002.85
2017-10-21T06:03:04.239Z,1002.83
2017-10-21T06:04:04.223Z,1002.82
2017-10-21T06:05:04.220Z,1002.83
2017-10-21T06:06:04.266Z,1002.79
2017-10-21T06:07:04.259Z,1002.82
2017-10-21T06:08:04.328Z,1002.73
2017-10-21T06:09:04.222Z,1002.74
2017-10-21T06:10:04.242Z,1002.73
2017-10-21T06:11:04.347Z,1002.70
2017-10-21T06:12:04.347Z,1002.66
2017-10-21T06:13:04.313Z,1002.66
2017-10-21T06:14:04.269Z,1002.61
2017-10-21T06:15:04.269Z,1002.73
2017-10-21T06:16:04.262Z,1002.78
2017-10-21T06:17:04.343Z,1002.76
2017-10-21T06:18:04.226Z,1002.77
2017-10-21T06:19:04.330Z,1002.81
2017-10-21T06:20:04.292Z,1002.81
2017-10-21T06:21:04.310Z,1002.82
2017-10-21T06:22:04.293Z,1002.79
2017-10-21T06:23:04.325Z,1002.78
2017-10-21T06:24:04.295Z,1002.79
2017-10-21T06:25:04.347Z,1002.78
2017-10-21T06:26:04.327Z,1002.76
2017-10-21T06:27:04.367Z,1002.79
2017-10-21T06:28:04.298Z,1002.79
2017-10-21T06:29:04.371Z,1002.85
2017-10-21T06:30:04.370Z,1002.81
2017-10-21T06:31:04.298Z,1002.86
2017-10-21T06:32:04.371Z,1002.84
2017-10-21T06:33:04.301Z,1002.82
2017-10-21T06:34:04.372Z,1002.87
2017-10-21T06:35:04.257Z,1002.90
2017-10-21T06:36:04.302Z,1002.89
2017-10-21T06:37:04.376Z,1002.93
2017-10-21T06:38:04.304Z,1002.93
2017-10-21T06:39:04.298Z,1002.98
2017-10-21T06:40:04.378Z,1002.97
2017-10-21T06:41:04.305Z,1002.99
2017-10-21T06:42:04.375Z,1002.98
2017-10-21T06:43:04.326Z,1002.95
2017-10-21T06:44:04.307Z,1002.93
2017-10-21T06:45:04.304Z,1002.93
2017-10-21T06:46:04.381Z,1002.95
2017-10-21T06:47:04.290Z,1002.97
2017-10-21T06:48:04.402Z,1002.93
2017-10-21T06:49:04.302Z,1002.96
2017-10-21T06:50:04.380Z,1002.89
2017-10-21T06:51:04.304Z,1002.94
2017-10-21T06:52:04.383Z,1002.96
2017-10-21T06:53:04.308Z,1002.95
2017-10-21T06:54:04.385Z,1002.99
2017-10-21T06:55:04.317Z,1002.98
2017-10-21T06:56:04.386Z,1002.98
2017-10-21T06:57:04.293Z,1003.00
2017-10-21T06:58:04.254Z,1003.00
2017-10-21T06:59:04.343Z,1003.02
2017-10-21T07:00:04.276Z,1003.03
2017-10-21T07:01:04.244Z,1003.06
2017-10-21T07:02:04.348Z,1003.07
2017-10-21T07:03:04.330Z,1003.05
2017-10-21T07:04:04.345Z,1003.11
2017-10-21T07:05:04.341Z,1003.14
2017-10-21T07:06:04.292Z,1003.13
2017-10-21T07:07:04.276Z,1003.14
2017-10-21T07:08:04.400Z,1003.14
2017-10-21T07:09:04.329Z,1003.14
2017-10-21T07:10:04.392Z,1003.13
2017-10-21T07:11:04.324Z,1003.12
2017-10-21T07:12:04.394Z,1003.10
2017-10-21T07:13:04.325Z,1003.12
2017-10-21T07:14:04.325Z,1003.13
2017-10-21T07:15:04.394Z,1003.10
2017-10-21T07:16:04.323Z,1003.09
2017-10-21T07:17:04.398Z,1003.07
2017-10-21T07:18:04.325Z,1003.02
2017-10-21T07:19:04.407Z,1002.99
2017-10-21T07:20:04.325Z,1003.05
2017-10-21T07:21:04.403Z,1003.03
2017-10-21T07:22:04.335Z,1003.06
2017-10-21T07:23:04.403Z,1003.00
2017-10-21T07:24:04.325Z,1003.01
2017-10-21T07:25:04.324Z,1003.02
2017-10-21T07:26:04.403Z,1003.01
2017-10-21T07:27:04.352Z,1003.01
2017-10-21T07:28:04.405Z,1003.04
2017-10-21T07:29:04.405Z,1002.98
2017-10-21T07:30:04.330Z,1003.00
2017-10-21T07:31:04.333Z,1002.99
2017-10-21T07:32:04.342Z,1002.97
2017-10-21T07:33:04.346Z,1002.98
2017-10-21T07:34:04.412Z,1002.93
2017-10-21T07:35:04.341Z,1002.96
2017-10-21T07:36:04.288Z,1002.94
2017-10-21T07:37:04.308Z,1002.94
2017-10-21T07:38:04.298Z,1002.92
2017-10-21T07:39:04.300Z,1002.92
2017-10-21T07:40:04.417Z,1002.96
2017-10-21T07:41:04.410Z,1002.94
2017-10-21T07:42:04.414Z,1002.95
2017-10-21T07:43:04.338Z,1002.95
2017-10-21T07:44:04.278Z,1002.97
2017-10-21T07:45:04.314Z,1002.94
2017-10-21T07:46:04.408Z,1002.94
2017-10-21T07:47:04.381Z,1002.89
2017-10-21T07:48:04.278Z,1002.82
2017-10-21T07:49:04.378Z,1002.87
2017-10-21T07:50:04.367Z,1002.89
2017-10-21T07:51:04.375Z,1002.84
2017-10-21T07:52:04.304Z,1002.89
2017-10-21T07:53:04.360Z,1002.89
2017-10-21T07:54:04.307Z,1002.89
2017-10-21T07:55:04.380Z,1002.88
2017-10-21T07:56:04.386Z,1002.90
2017-10-21T07:57:04.386Z,1002.86
2017-10-21T07:58:04.345Z,1002.84
2017-10-21T07:59:04.310Z,1002.83
2017-10-21T08:00:04.285Z,1002.78
2017-10-21T08:01:04.281Z,1002.80
2017-10-21T08:02:04.386Z,1002.86
2017-10-21T08:03:04.315Z,1002.87
2017-10-21T08:04:04.312Z,1002.86
2017-10-21T08:05:04.310Z,1002.84
2017-10-21T08:06:04.372Z,1002.79
2017-10-21T08:07:04.338Z,1002.76
2017-10-21T08:08:04.313Z,1002.71
2017-10-21T08:09:04.406Z,1002.71
2017-10-21T08:10:04.356Z,1002.74
2017-10-21T08:11:04.315Z,1002.75
2017-10-21T08:12:04.312Z,1002.74
2017-10-21T08:13:04.376Z,1002.76
2017-10-21T08:14:04.290Z,1002.72
2017-10-21T08:15:04.366Z,1002.76
2017-10-21T08:16:04.301Z,1002.76
2017-10-21T08:17:04.361Z,1002.74
2017-10-21T08:18:04.435Z,1002.74
2017-10-21T08:19:04.437Z,1002.70
2017-10-21T08:20:04.367Z,1002.65
2017-10-21T08:21:04.437Z,1002.64
2017-10-21T08:22:04.370Z,1002.72
2017-10-21T08:23:04.368Z,1002.70
2017-10-21T08:24:04.438Z,1002.71
2017-10-21T08:25:04.439Z,1002.70
2017-10-21T08:26:04.369Z,1002.77
2017-10-21T08:27:04.437Z,1002.78
2017-10-21T08:28:04.424Z,1002.80
2017-10-21T08:29:04.381Z,1002.78
2017-10-21T08:30:04.353Z,1002.73
2017-10-21T08:31:04.437Z,1002.75
2017-10-21T08:32:04.322Z,1002.72
2017-10-21T08:33:04.319Z,1002.71
2017-10-21T08:34:04.409Z,1002.72
2017-10-21T08:35:04.390Z,1002.70
2017-10-21T08:36:04.342Z,1002.69
2017-10-21T08:37:04.291Z,1002.75
2017-10-21T08:38:04.298Z,1002.67
2017-10-21T08:39:04.295Z,1002.70
2017-10-21T08:40:04.340Z,1002.62
2017-10-21T08:41:04.305Z,1002.68
2017-10-21T08:42:04.346Z,1002.67
2017-10-21T08:43:04.300Z,1002.73
2017-10-21T08:44:04.332Z,1002.70
2017-10-21T08:45:04.356Z,1002.70
2017-10-21T08:46:04.311Z,1002.70
2017-10-21T08:47:04.380Z,1002.76
2017-10-21T08:48:04.453Z,1002.74
2017-10-21T08:49:04.380Z,1002.78
2017-10-21T08:50:04.455Z,1002.78
2017-10-21T08:51:04.457Z,1002.81
2017-10-21T08:52:04.384Z,1002.76
2017-10-21T08:53:04.455Z,1002.77
2017-10-21T08:54:04.383Z,1002.74
2017-10-21T08:55:04.459Z,1002.74
2017-10-21T08:56:04.384Z,1002.71
2017-10-21T08:57:04.465Z,1002.74
2017-10-21T08:58:04.390Z,1002.71
2017-10-21T08:59:04.461Z,1002.73
2017-10-21T09:00:04.386Z,1002.79
2017-10-21T09:01:04.398Z,1002.78
2017-10-21T09:02:04.460Z,1002.78
2017-10-21T09:03:04.389Z,1002.82
2017-10-21T09:04:04.462Z,1002.77
2017-10-21T09:05:04.465Z,1002.80
2017-10-21T09:06:04.395Z,1002.77
2017-10-21T09:07:04.467Z,1002.68
2017-10-21T09:08:04.438Z,1002.68
2017-10-21T09:09:04.466Z,1002.68
2017-10-21T09:10:04.394Z,1002.69
2017-10-21T09:11:04.466Z,1002.66
2017-10-21T09:12:04.391Z,1002.59
2017-10-21T09:13:04.469Z,1002.62
2017-10-21T09:14:04.394Z,1002.54
2017-10-21T09:15:04.467Z,1002.59
2017-10-21T09:16:04.398Z,1002.60
2017-10-21T09:17:04.354Z,1002.53
2017-10-21T09:18:04.430Z,1002.53
2017-10-21T09:19:04.336Z,1002.52
2017-10-21T09:20:04.362Z,1002.52
2017-10-21T09:21:04.400Z,1002.52
2017-10-21T09:22:04.340Z,1002.51
2017-10-21T09:23:04.416Z,1002.50
2017-10-21T09:24:04.441Z,1002.49
2017-10-21T09:25:04.381Z,1002.48
2017-10-21T09:26:04.361Z,1002.52
2017-10-21T09:27:04.438Z,1002.49
2017-10-21T09:28:04.438Z,1002.50
2017-10-21T09:29:04.386Z,1002.49
2017-10-21T09:30:04.476Z,1002.49
2017-10-21T09:31:04.464Z,1002.47
2017-10-21T09:32:04.473Z,1002.47
2017-10-21T09:33:04.441Z,1002.46
2017-10-21T09:34:04.450Z,1002.49
2017-10-21T09:35:04.383Z,1002.46
2017-10-21T09:36:04.451Z,1002.52
2017-10-21T09:37:04.454Z,1002.53
2017-10-21T09:38:04.483Z,1002.50
2017-10-21T09:39:04.485Z,1002.46
2017-10-21T09:40:04.412Z,1002.44
2017-10-21T09:41:04.485Z,1002.45
2017-10-21T09:42:04.410Z,1002.46
2017-10-21T09:43:04.484Z,1002.41
2017-10-21T09:44:04.444Z,1002.38
2017-10-21T09:45:04.490Z,1002.33
2017-10-21T09:46:04.485Z,1002.35
2017-10-21T09:47:04.414Z,1002.34
2017-10-21T09:48:04.387Z,1002.42
2017-10-21T09:49:04.489Z,1002.42
2017-10-21T09:50:04.392Z,1002.42
2017-10-21T09:51:04.489Z,1002.44
2017-10-21T09:52:04.452Z,1002.38
2017-10-21T09:53:04.480Z,1002.39
2017-10-21T09:54:04.491Z,1002.35
2017-10-21T09:55:04.475Z,1002.35
2017-10-21T09:56:04.456Z,1002.38
2017-10-21T09:57:04.481Z,1002.42
2017-10-21T09:58:04.421Z,1002.43
2017-10-21T09:59:04.493Z,1002.40
2017-10-21T10:00:04.424Z,1002.39
2017-10-21T10:01:04.492Z,1002.39
2017-10-21T10:02:04.493Z,1002.36
2017-10-21T10:03:04.440Z,1002.37
2017-10-21T10:04:04.497Z,1002.37
2017-10-21T10:05:04.422Z,1002.37
2017-10-21T10:06:04.424Z,1002.32
2017-10-21T10:07:04.491Z,1002.31
2017-10-21T10:08:04.434Z,1002.33
2017-10-21T10:09:04.501Z,1002.31
2017-10-21T10:10:04.427Z,1002.33
2017-10-21T10:11:04.428Z,1002.34
2017-10-21T10:12:04.433Z,1002.29
2017-10-21T10:13:04.506Z,1002.27
2017-10-21T10:14:04.437Z,1002.28
2017-10-21T10:15:04.507Z,1002.27
2017-10-21T10:16:04.505Z,1002.29
2017-10-21T10:17:04.440Z,1002.29
2017-10-21T10:18:04.505Z,1002.23
2017-10-21T10:19:04.457Z,1002.26
2017-10-21T10:20:04.509Z,1002.21
2017-10-21T10:21:04.471Z,1002.21
2017-10-21T10:22:04.437Z,1002.15
2017-10-21T10:23:04.437Z,1002.14
2017-10-21T10:24:04.509Z,1002.16
2017-10-21T10:25:04.438Z,1002.15
2017-10-21T10:26:04.513Z,1002.16
2017-10-21T10:27:04.514Z,1002.15
2017-10-21T10:28:04.436Z,1002.17
2017-10-21T10:29:04.513Z,1002.15
2017-10-21T10:30:04.439Z,1002.14
2017-10-21T10:31:04.427Z,1002.08
2017-10-21T10:32:04.448Z,1002.06
2017-10-21T10:33:04.514Z,1002.10
2017-10-21T10:34:04.444Z,1002.13
2017-10-21T10:35:04.519Z,1002.10
2017-10-21T10:36:04.450Z,1002.05
2017-10-21T10:37:04.450Z,1002.09
2017-10-21T10:38:04.599Z,1002.11
2017-10-21T10:39:04.520Z,1002.10
2017-10-21T10:40:04.450Z,1002.12
2017-10-21T10:41:04.523Z,1002.16
2017-10-21T10:42:04.452Z,1002.12
2017-10-21T10:43:04.523Z,1002.08
2017-10-21T10:44:04.447Z,1002.10
2017-10-21T10:45:04.524Z,1002.08
2017-10-21T10:46:04.518Z,1002.01
2017-10-21T10:47:04.525Z,1001.99
2017-10-21T10:48:04.512Z,1002.01
2017-10-21T10:49:04.519Z,1001.94
2017-10-21T10:50:04.427Z,1001.91
2017-10-21T10:51:04.486Z,1001.91
2017-10-21T10:52:04.489Z,1001.90
2017-10-21T10:53:04.422Z,1001.90
2017-10-21T10:54:04.487Z,1001.91
2017-10-21T10:55:04.515Z,1001.90
2017-10-21T10:56:04.472Z,1001.89
2017-10-21T10:57:04.429Z,1001.87
2017-10-21T10:58:04.538Z,1001.94
2017-10-21T10:59:04.479Z,1001.89
2017-10-21T11:00:04.533Z,1001.88
2017-10-21T11:01:04.465Z,1001.88
2017-10-21T11:02:04.536Z,1001.90
2017-10-21T11:03:04.464Z,1001.85
2017-10-21T11:04:04.535Z,1001.84
2017-10-21T11:05:04.466Z,1001.89
2017-10-21T11:06:04.567Z,1001.92
2017-10-21T11:07:04.466Z,1001.93
2017-10-21T11:08:04.469Z,1001.98
2017-10-21T11:09:04.539Z,1001.99
2017-10-21T11:10:04.466Z,1001.98
2017-10-21T11:11:04.541Z,1001.93
2017-10-21T11:12:04.471Z,1001.88
2017-10-21T11:13:04.540Z,1001.89
2017-10-21T11:14:04.465Z,1001.85
2017-10-21T11:15:04.543Z,1001.86
2017-10-21T11:16:04.467Z,1001.87
2017-10-21T11:17:04.541Z,1001.89
2017-10-21T11:18:04.475Z,1001.87
2017-10-21T11:19:04.470Z,1001.91
2017-10-21T11:20:04.544Z,1001.84
2017-10-21T11:21:04.472Z,1001.79
2017-10-21T11:22:04.550Z,1001.82
2017-10-21T11:23:04.547Z,1001.77
2017-10-21T11:24:04.474Z,1001.78
2017-10-21T11:25:04.552Z,1001.83
2017-10-21T11:26:04.483Z,1001.83
2017-10-21T11:27:04.550Z,1001.82
2017-10-21T11:28:04.432Z,1001.77
2017-10-21T11:29:04.493Z,1001.81
2017-10-21T11:30:04.442Z,1001.80
2017-10-21T11:31:04.517Z,1001.78
2017-10-21T11:32:04.540Z,1001.82
2017-10-21T11:33:04.478Z,1001.77
2017-10-21T11:34:04.451Z,1001.81
2017-10-21T11:35:04.429Z,1001.83
2017-10-21T11:36:04.517Z,1001.84
2017-10-21T11:37:04.542Z,1001.81
2017-10-21T11:38:04.460Z,1001.83
2017-10-21T11:39:04.463Z,1001.84
2017-10-21T11:40:04.410Z,1001.82
2017-10-21T11:41:04.464Z,1001.88
2017-10-21T11:42:04.519Z,1001.85
2017-10-21T11:43:04.437Z,1001.85
2017-10-21T11:44:04.517Z,1001.84
2017-10-21T11:45:04.453Z,1001.83
2017-10-21T11:46:04.449Z,1001.78
2017-10-21T11:47:04.490Z,1001.85
2017-10-21T11:48:04.498Z,1001.79
2017-10-21T11:49:04.560Z,1001.83
2017-10-21T11:50:04.492Z,1001.83
2017-10-21T11:51:04.566Z,1001.83
2017-10-21T11:52:04.488Z,1001.79
2017-10-21T11:53:04.574Z,1001.84
2017-10-21T11:54:04.490Z,1001.85
2017-10-21T11:55:04.575Z,1001.82
2017-10-21T11:56:04.488Z,1001.85
2017-10-21T11:57:04.577Z,1001.83
2017-10-21T11:58:04.386Z,1001.87
2017-10-21T11:59:04.562Z,1001.85
2017-10-21T12:00:04.384Z,1001.84
2017-10-21T12:01:04.396Z,1001.83
2017-10-21T12:02:04.443Z,1001.86
2017-10-21T12:03:04.503Z,1001.89
2017-10-21T12:04:04.434Z,1001.86
2017-10-21T12:05:04.420Z,1001.83